This is the latest recevied weather packets stored in our database for station/object SP2ARQ-13. If no packets are shown the sender has not sent any weather packets the latest 1 day(s).
| Time | Temp. | Humidity | Pressure | Rain* | Wind** | Luminosity | Snow |
|---|---|---|---|---|---|---|---|
| 1778108265 | 12.22° C | 95% | 1007.8 hPa | - | - | - | - |
| 1778107365 | 12.78° C | 92% | 1008 hPa | - | - | - | - |
| 1778102864 | 13.89° C | 87% | 1007 hPa | - | - | - | - |
| 1778101964 | 13.89° C | 89% | 1006.6 hPa | - | - | - | - |
| 1778097463 | 15.56° C | 83% | 1006.5 hPa | - | - | - | - |
| 1778096563 | 16.11° C | 82% | 1006.4 hPa | - | - | - | - |
| 1778092062 | 18.33° C | 76% | 1005.4 hPa | - | - | - | - |
| 1778091162 | 18.89° C | 72% | 1005.1 hPa | - | - | - | - |
| 1778086661 | 20.56° C | 67% | 1004.7 hPa | - | - | - | - |
| 1778085761 | 20.56° C | 65% | 1004.5 hPa | - | - | - | - |
| 1778082160 | 21.11° C | 61% | 1004.6 hPa | - | - | - | - |
| 1778081260 | 20.56° C | 63% | 1004.7 hPa | - | - | - | - |
| 1778080360 | 20.56° C | 65% | 1004.9 hPa | - | - | - | - |
| 1778076758 | 20° C | 65% | 1005.1 hPa | - | - | - | - |
| 1778075858 | 20.56° C | 65% | 1005 hPa | - | - | - | - |
| 1778074958 | 20° C | 65% | 1005.1 hPa | - | - | - | - |
| 1778070457 | 20° C | 62% | 1005.2 hPa | - | - | - | - |
| 1778066856 | 19.44° C | 65% | 1005 hPa | - | - | - | - |
| 1778065956 | 21.11° C | 60% | 1004.9 hPa | - | - | - | - |
| 1778065056 | 21.11° C | 59% | 1004.5 hPa | - | - | - | - |
| 1778064156 | 20.56° C | 60% | 1004.5 hPa | - | - | - | - |
| 1778060555 | 20° C | 63% | 1004.4 hPa | - | - | - | - |
| 1778059655 | 18.89° C | 66% | 1004.5 hPa | - | - | - | - |
| 1778058755 | 18.33° C | 67% | 1004.4 hPa | - | - | - | - |
| 1778055154 | 17.78° C | 67% | 1003.8 hPa | - | - | - | - |
* Rain since midnight (hover to see other rain measurements)
** Current wind speed in m/s (hover to see current wind gust speed)